sensor_id;sensor_type;location;lat;lon;timestamp;temperature;humidity
42365;DHT22;28498;54.400;18.566;2022-08-19T00:01:45;20.00;99.90
42365;DHT22;28498;54.400;18.566;2022-08-19T00:04:21;20.00;99.90
42365;DHT22;28498;54.400;18.566;2022-08-19T00:06:49;20.00;99.90
42365;DHT22;28498;54.400;18.566;2022-08-19T00:09:18;19.90;99.90
42365;DHT22;28498;54.400;18.566;2022-08-19T00:11:45;19.90;99.90
42365;DHT22;28498;54.400;18.566;2022-08-19T00:14:15;19.90;99.90
42365;DHT22;28498;54.400;18.566;2022-08-19T00:16:44;19.90;99.90
42365;DHT22;28498;54.400;18.566;2022-08-19T00:19:13;19.90;99.90
42365;DHT22;28498;54.400;18.566;2022-08-19T00:21:40;19.80;99.90
42365;DHT22;28498;54.400;18.566;2022-08-19T00:24:08;19.80;99.90
42365;DHT22;28498;54.400;18.566;2022-08-19T00:26:36;19.70;99.90
42365;DHT22;28498;54.400;18.566;2022-08-19T00:29:05;19.70;99.90
42365;DHT22;28498;54.400;18.566;2022-08-19T00:31:32;19.70;99.90
42365;DHT22;28498;54.400;18.566;2022-08-19T00:33:59;19.70;99.90
42365;DHT22;28498;54.400;18.566;2022-08-19T00:36:26;19.70;99.90
42365;DHT22;28498;54.400;18.566;2022-08-19T00:38:55;19.70;99.90
42365;DHT22;28498;54.400;18.566;2022-08-19T00:41:24;19.70;99.90
42365;DHT22;28498;54.400;18.566;2022-08-19T00:46:30;19.80;99.90
42365;DHT22;28498;54.400;18.566;2022-08-19T00:49:00;19.80;99.90
42365;DHT22;28498;54.400;18.566;2022-08-19T00:51:29;19.80;99.90
42365;DHT22;28498;54.400;18.566;2022-08-19T00:54:00;19.80;99.90
42365;DHT22;28498;54.400;18.566;2022-08-19T00:56:28;19.80;99.90
42365;DHT22;28498;54.400;18.566;2022-08-19T00:58:56;19.80;99.90
42365;DHT22;28498;54.400;18.566;2022-08-19T01:01:25;19.80;99.90
42365;DHT22;28498;54.400;18.566;2022-08-19T01:03:52;19.80;99.90
42365;DHT22;28498;54.400;18.566;2022-08-19T01:06:25;19.80;99.90
42365;DHT22;28498;54.400;18.566;2022-08-19T01:08:54;19.70;99.90
42365;DHT22;28498;54.400;18.566;2022-08-19T01:11:20;19.70;99.90
42365;DHT22;28498;54.400;18.566;2022-08-19T01:13:48;19.60;99.90
42365;DHT22;28498;54.400;18.566;2022-08-19T01:16:18;19.60;99.90
42365;DHT22;28498;54.400;18.566;2022-08-19T01:18:46;19.50;99.90
42365;DHT22;28498;54.400;18.566;2022-08-19T01:21:40;19.50;99.90
42365;DHT22;28498;54.400;18.566;2022-08-19T01:24:08;19.50;99.90
42365;DHT22;28498;54.400;18.566;2022-08-19T01:26:43;19.50;99.90
42365;DHT22;28498;54.400;18.566;2022-08-19T01:29:12;19.50;99.90
42365;DHT22;28498;54.400;18.566;2022-08-19T01:31:40;19.40;99.90
42365;DHT22;28498;54.400;18.566;2022-08-19T01:34:07;19.40;99.90
42365;DHT22;28498;54.400;18.566;2022-08-19T01:36:40;19.40;99.90
42365;DHT22;28498;54.400;18.566;2022-08-19T01:39:12;19.40;99.90
42365;DHT22;28498;54.400;18.566;2022-08-19T01:41:39;19.40;99.90
42365;DHT22;28498;54.400;18.566;2022-08-19T01:44:08;19.40;99.90
42365;DHT22;28498;54.400;18.566;2022-08-19T01:46:47;19.40;99.90
42365;DHT22;28498;54.400;18.566;2022-08-19T01:49:15;19.40;99.90
42365;DHT22;28498;54.400;18.566;2022-08-19T01:51:42;19.30;99.90
42365;DHT22;28498;54.400;18.566;2022-08-19T01:54:11;19.30;99.90
42365;DHT22;28498;54.400;18.566;2022-08-19T01:56:39;19.30;99.90
42365;DHT22;28498;54.400;18.566;2022-08-19T01:59:12;19.30;99.90
42365;DHT22;28498;54.400;18.566;2022-08-19T02:01:39;19.40;99.90
42365;DHT22;28498;54.400;18.566;2022-08-19T02:04:07;19.30;99.90
42365;DHT22;28498;54.400;18.566;2022-08-19T02:06:34;19.30;99.90
42365;DHT22;28498;54.400;18.566;2022-08-19T02:09:02;19.20;99.90
42365;DHT22;28498;54.400;18.566;2022-08-19T02:11:32;19.20;99.90
42365;DHT22;28498;54.400;18.566;2022-08-19T02:14:02;19.20;99.90
42365;DHT22;28498;54.400;18.566;2022-08-19T02:16:29;19.20;99.90
42365;DHT22;28498;54.400;18.566;2022-08-19T02:18:57;19.20;99.90
42365;DHT22;28498;54.400;18.566;2022-08-19T02:21:28;19.10;99.90
42365;DHT22;28498;54.400;18.566;2022-08-19T02:23:55;19.20;99.90
42365;DHT22;28498;54.400;18.566;2022-08-19T02:26:22;19.10;99.90
42365;DHT22;28498;54.400;18.566;2022-08-19T02:28:50;19.10;99.90
42365;DHT22;28498;54.400;18.566;2022-08-19T02:31:19;19.10;99.90
42365;DHT22;28498;54.400;18.566;2022-08-19T02:33:47;19.00;99.90
42365;DHT22;28498;54.400;18.566;2022-08-19T02:36:16;19.10;99.90
42365;DHT22;28498;54.400;18.566;2022-08-19T02:38:47;19.00;99.90
42365;DHT22;28498;54.400;18.566;2022-08-19T02:41:22;19.00;99.90
42365;DHT22;28498;54.400;18.566;2022-08-19T02:43:53;19.00;99.90
42365;DHT22;28498;54.400;18.566;2022-08-19T02:46:40;19.00;99.90
42365;DHT22;28498;54.400;18.566;2022-08-19T02:49:07;19.00;99.90
42365;DHT22;28498;54.400;18.566;2022-08-19T02:51:40;19.00;99.90
42365;DHT22;28498;54.400;18.566;2022-08-19T02:54:09;18.90;99.90
42365;DHT22;28498;54.400;18.566;2022-08-19T02:56:38;18.90;99.90
42365;DHT22;28498;54.400;18.566;2022-08-19T02:59:06;18.90;99.90
42365;DHT22;28498;54.400;18.566;2022-08-19T03:01:37;18.90;99.90
42365;DHT22;28498;54.400;18.566;2022-08-19T03:04:08;19.00;99.90
42365;DHT22;28498;54.400;18.566;2022-08-19T03:06:38;19.00;99.90
42365;DHT22;28498;54.400;18.566;2022-08-19T03:09:05;19.00;99.90
42365;DHT22;28498;54.400;18.566;2022-08-19T03:11:32;19.00;99.90
42365;DHT22;28498;54.400;18.566;2022-08-19T03:14:00;19.10;99.90
42365;DHT22;28498;54.400;18.566;2022-08-19T03:16:31;19.00;99.90
42365;DHT22;28498;54.400;18.566;2022-08-19T03:18:59;19.10;99.90
42365;DHT22;28498;54.400;18.566;2022-08-19T03:21:30;19.10;99.90
42365;DHT22;28498;54.400;18.566;2022-08-19T03:24:00;19.20;99.90
42365;DHT22;28498;54.400;18.566;2022-08-19T03:26:28;19.20;99.90
42365;DHT22;28498;54.400;18.566;2022-08-19T03:28:56;19.20;99.90
42365;DHT22;28498;54.400;18.566;2022-08-19T03:31:26;19.30;99.90
42365;DHT22;28498;54.400;18.566;2022-08-19T03:34:16;19.30;99.90
42365;DHT22;28498;54.400;18.566;2022-08-19T03:36:46;19.30;99.90
42365;DHT22;28498;54.400;18.566;2022-08-19T03:39:15;19.30;99.90
42365;DHT22;28498;54.400;18.566;2022-08-19T03:41:44;19.30;99.90
42365;DHT22;28498;54.400;18.566;2022-08-19T03:44:16;19.30;99.90
42365;DHT22;28498;54.400;18.566;2022-08-19T03:46:54;19.30;99.90
42365;DHT22;28498;54.400;18.566;2022-08-19T03:49:26;19.20;99.90
42365;DHT22;28498;54.400;18.566;2022-08-19T03:51:56;19.30;99.90
42365;DHT22;28498;54.400;18.566;2022-08-19T03:54:25;19.30;99.90
42365;DHT22;28498;54.400;18.566;2022-08-19T03:56:54;19.30;99.90
42365;DHT22;28498;54.400;18.566;2022-08-19T03:59:28;19.30;99.90
42365;DHT22;28498;54.400;18.566;2022-08-19T04:01:56;19.30;99.90
42365;DHT22;28498;54.400;18.566;2022-08-19T04:04:24;19.30;99.90
42365;DHT22;28498;54.400;18.566;2022-08-19T04:06:55;19.40;99.90
42365;DHT22;28498;54.400;18.566;2022-08-19T04:09:22;19.50;99.90
42365;DHT22;28498;54.400;18.566;2022-08-19T04:11:53;19.50;99.90
42365;DHT22;28498;54.400;18.566;2022-08-19T04:14:29;19.50;99.90
42365;DHT22;28498;54.400;18.566;2022-08-19T04:16:58;19.60;99.90
42365;DHT22;28498;54.400;18.566;2022-08-19T04:19:26;19.70;99.90
42365;DHT22;28498;54.400;18.566;2022-08-19T04:21:54;19.70;99.90
42365;DHT22;28498;54.400;18.566;2022-08-19T04:24:22;19.80;99.90
42365;DHT22;28498;54.400;18.566;2022-08-19T04:26:49;19.90;99.90
42365;DHT22;28498;54.400;18.566;2022-08-19T04:29:23;19.80;99.90
42365;DHT22;28498;54.400;18.566;2022-08-19T04:31:53;20.00;99.90
42365;DHT22;28498;54.400;18.566;2022-08-19T04:34:23;20.10;99.90
42365;DHT22;28498;54.400;18.566;2022-08-19T04:36:52;20.10;99.90
42365;DHT22;28498;54.400;18.566;2022-08-19T04:39:22;20.20;99.90
42365;DHT22;28498;54.400;18.566;2022-08-19T04:42:10;20.10;99.90
42365;DHT22;28498;54.400;18.566;2022-08-19T04:44:56;20.20;99.90
42365;DHT22;28498;54.400;18.566;2022-08-19T04:47:25;20.30;99.90
42365;DHT22;28498;54.400;18.566;2022-08-19T04:50:12;20.50;99.90
42365;DHT22;28498;54.400;18.566;2022-08-19T04:52:39;20.70;99.90
42365;DHT22;28498;54.400;18.566;2022-08-19T04:55:10;21.10;99.90
42365;DHT22;28498;54.400;18.566;2022-08-19T04:57:37;21.50;99.90
42365;DHT22;28498;54.400;18.566;2022-08-19T05:00:08;22.00;99.90
42365;DHT22;28498;54.400;18.566;2022-08-19T05:02:37;22.20;99.90
42365;DHT22;28498;54.400;18.566;2022-08-19T05:05:04;22.30;99.90
42365;DHT22;28498;54.400;18.566;2022-08-19T05:07:33;22.30;99.90
42365;DHT22;28498;54.400;18.566;2022-08-19T05:10:00;22.40;99.90
42365;DHT22;28498;54.400;18.566;2022-08-19T05:12:27;22.40;99.90
42365;DHT22;28498;54.400;18.566;2022-08-19T05:14:56;22.40;99.90
42365;DHT22;28498;54.400;18.566;2022-08-19T05:17:25;22.60;99.90
42365;DHT22;28498;54.400;18.566;2022-08-19T05:19:56;22.60;99.90
42365;DHT22;28498;54.400;18.566;2022-08-19T05:22:43;22.60;99.90
42365;DHT22;28498;54.400;18.566;2022-08-19T05:25:13;22.60;99.90
42365;DHT22;28498;54.400;18.566;2022-08-19T05:27:42;22.70;99.90
42365;DHT22;28498;54.400;18.566;2022-08-19T05:30:10;23.00;99.90
42365;DHT22;28498;54.400;18.566;2022-08-19T05:32:39;23.10;99.90
42365;DHT22;28498;54.400;18.566;2022-08-19T05:35:06;23.20;99.90
42365;DHT22;28498;54.400;18.566;2022-08-19T05:37:33;23.20;99.90
42365;DHT22;28498;54.400;18.566;2022-08-19T05:40:01;23.30;99.90
42365;DHT22;28498;54.400;18.566;2022-08-19T05:42:28;23.30;99.90
42365;DHT22;28498;54.400;18.566;2022-08-19T05:44:55;23.30;99.90
42365;DHT22;28498;54.400;18.566;2022-08-19T05:47:22;23.40;99.90
42365;DHT22;28498;54.400;18.566;2022-08-19T05:49:49;23.40;99.90
42365;DHT22;28498;54.400;18.566;2022-08-19T05:52:17;23.40;99.90
42365;DHT22;28498;54.400;18.566;2022-08-19T05:54:51;23.40;99.90
42365;DHT22;28498;54.400;18.566;2022-08-19T05:57:19;23.40;99.90
42365;DHT22;28498;54.400;18.566;2022-08-19T05:59:46;23.40;99.90
42365;DHT22;28498;54.400;18.566;2022-08-19T06:02:23;23.50;99.90
42365;DHT22;28498;54.400;18.566;2022-08-19T06:04:51;23.60;99.90
42365;DHT22;28498;54.400;18.566;2022-08-19T06:07:18;23.60;99.90
42365;DHT22;28498;54.400;18.566;2022-08-19T06:09:46;23.80;99.90
42365;DHT22;28498;54.400;18.566;2022-08-19T06:12:29;23.90;99.90
42365;DHT22;28498;54.400;18.566;2022-08-19T06:15:07;24.20;99.90
42365;DHT22;28498;54.400;18.566;2022-08-19T06:17:34;24.40;99.90
42365;DHT22;28498;54.400;18.566;2022-08-19T06:20:06;24.60;99.90
42365;DHT22;28498;54.400;18.566;2022-08-19T06:26:15;25.00;99.90
42365;DHT22;28498;54.400;18.566;2022-08-19T06:32:24;25.60;65.70
42365;DHT22;28498;54.400;18.566;2022-08-19T06:34:50;25.80;65.70
42365;DHT22;28498;54.400;18.566;2022-08-19T06:37:17;25.80;71.20
42365;DHT22;28498;54.400;18.566;2022-08-19T06:39:44;25.90;59.70
42365;DHT22;28498;54.400;18.566;2022-08-19T06:42:12;25.70;87.70
42365;DHT22;28498;54.400;18.566;2022-08-19T06:44:45;25.60;78.10
42365;DHT22;28498;54.400;18.566;2022-08-19T06:47:19;25.70;44.00
42365;DHT22;28498;54.400;18.566;2022-08-19T06:49:55;25.60;37.80
42365;DHT22;28498;54.400;18.566;2022-08-19T06:52:33;25.70;30.50
42365;DHT22;28498;54.400;18.566;2022-08-19T06:55:03;25.70;31.70
42365;DHT22;28498;54.400;18.566;2022-08-19T06:57:32;25.80;25.30
42365;DHT22;28498;54.400;18.566;2022-08-19T07:00:00;25.90;39.10
42365;DHT22;28498;54.400;18.566;2022-08-19T07:02:27;26.10;7.20
42365;DHT22;28498;54.400;18.566;2022-08-19T07:04:54;26.20;17.20
42365;DHT22;28498;54.400;18.566;2022-08-19T07:07:24;26.20;1.00
42365;DHT22;28498;54.400;18.566;2022-08-19T07:09:51;26.20;1.00
42365;DHT22;28498;54.400;18.566;2022-08-19T07:12:28;26.00;1.00
42365;DHT22;28498;54.400;18.566;2022-08-19T07:15:03;25.90;1.00
42365;DHT22;28498;54.400;18.566;2022-08-19T07:17:30;26.10;1.00
42365;DHT22;28498;54.400;18.566;2022-08-19T07:20:00;26.20;1.00
42365;DHT22;28498;54.400;18.566;2022-08-19T07:26:25;26.40;1.00
42365;DHT22;28498;54.400;18.566;2022-08-19T07:28:54;26.60;1.00
42365;DHT22;28498;54.400;18.566;2022-08-19T07:31:24;26.80;1.00
42365;DHT22;28498;54.400;18.566;2022-08-19T07:33:56;27.00;1.00
42365;DHT22;28498;54.400;18.566;2022-08-19T07:40:06;27.00;1.00
42365;DHT22;28498;54.400;18.566;2022-08-19T07:42:33;27.10;1.00
42365;DHT22;28498;54.400;18.566;2022-08-19T07:45:00;27.10;1.00
42365;DHT22;28498;54.400;18.566;2022-08-19T07:47:28;27.20;1.00
42365;DHT22;28498;54.400;18.566;2022-08-19T07:50:16;27.40;1.00
42365;DHT22;28498;54.400;18.566;2022-08-19T07:52:43;27.60;1.00
42365;DHT22;28498;54.400;18.566;2022-08-19T07:55:17;27.60;1.00
42365;DHT22;28498;54.400;18.566;2022-08-19T07:58:04;27.60;99.90
42365;DHT22;28498;54.400;18.566;2022-08-19T08:00:31;27.60;99.90
42365;DHT22;28498;54.400;18.566;2022-08-19T08:02:58;27.70;99.90
42365;DHT22;28498;54.400;18.566;2022-08-19T08:05:25;27.70;99.90
42365;DHT22;28498;54.400;18.566;2022-08-19T08:08:11;27.70;23.20
42365;DHT22;28498;54.400;18.566;2022-08-19T08:10:58;27.80;1.00
42365;DHT22;28498;54.400;18.566;2022-08-19T08:13:25;27.90;1.00
42365;DHT22;28498;54.400;18.566;2022-08-19T08:15:53;28.20;99.90
42365;DHT22;28498;54.400;18.566;2022-08-19T08:18:25;28.30;99.90
42365;DHT22;28498;54.400;18.566;2022-08-19T08:20:56;28.40;1.00
42365;DHT22;28498;54.400;18.566;2022-08-19T08:23:24;28.60;1.00
42365;DHT22;28498;54.400;18.566;2022-08-19T08:25:57;28.80;99.90
42365;DHT22;28498;54.400;18.566;2022-08-19T08:28:26;29.00;99.90
42365;DHT22;28498;54.400;18.566;2022-08-19T08:30:56;28.80;1.00
42365;DHT22;28498;54.400;18.566;2022-08-19T08:33:26;28.90;40.60
42365;DHT22;28498;54.400;18.566;2022-08-19T08:36:07;28.90;1.00
42365;DHT22;28498;54.400;18.566;2022-08-19T08:38:35;29.00;1.00
42365;DHT22;28498;54.400;18.566;2022-08-19T08:41:37;29.00;99.90
42365;DHT22;28498;54.400;18.566;2022-08-19T08:44:15;29.00;1.00
42365;DHT22;28498;54.400;18.566;2022-08-19T08:46:51;28.80;1.00
42365;DHT22;28498;54.400;18.566;2022-08-19T08:52:18;28.90;99.90
42365;DHT22;28498;54.400;18.566;2022-08-19T08:54:48;28.70;1.00
42365;DHT22;28498;54.400;18.566;2022-08-19T08:58:07;28.80;1.00
42365;DHT22;28498;54.400;18.566;2022-08-19T09:00:29;28.90;99.90
42365;DHT22;28498;54.400;18.566;2022-08-19T09:02:58;28.70;99.90
42365;DHT22;28498;54.400;18.566;2022-08-19T09:06:18;28.70;99.90
42365;DHT22;28498;54.400;18.566;2022-08-19T09:11:05;28.60;1.00
42365;DHT22;28498;54.400;18.566;2022-08-19T09:16:25;28.70;1.00
42365;DHT22;28498;54.400;18.566;2022-08-19T09:18:58;28.60;99.90
42365;DHT22;28498;54.400;18.566;2022-08-19T09:21:28;28.30;99.90
42365;DHT22;28498;54.400;18.566;2022-08-19T09:24:00;28.20;45.30
42365;DHT22;28498;54.400;18.566;2022-08-19T09:26:29;28.20;99.90
42365;DHT22;28498;54.400;18.566;2022-08-19T09:29:18;28.00;99.30
42365;DHT22;28498;54.400;18.566;2022-08-19T09:31:48;27.90;99.90
42365;DHT22;28498;54.400;18.566;2022-08-19T09:34:16;28.00;99.90
42365;DHT22;28498;54.400;18.566;2022-08-19T09:36:48;28.10;99.90
42365;DHT22;28498;54.400;18.566;2022-08-19T09:39:19;28.20;99.90
42365;DHT22;28498;54.400;18.566;2022-08-19T09:41:46;28.30;99.90
42365;DHT22;28498;54.400;18.566;2022-08-19T09:44:14;28.30;99.90
42365;DHT22;28498;54.400;18.566;2022-08-19T09:46:42;28.40;99.90
42365;DHT22;28498;54.400;18.566;2022-08-19T09:49:08;28.50;99.90
42365;DHT22;28498;54.400;18.566;2022-08-19T09:51:35;28.80;94.60
42365;DHT22;28498;54.400;18.566;2022-08-19T09:54:04;28.90;90.00
42365;DHT22;28498;54.400;18.566;2022-08-19T09:56:32;29.20;99.90
42365;DHT22;28498;54.400;18.566;2022-08-19T09:59:01;29.30;1.00
42365;DHT22;28498;54.400;18.566;2022-08-19T10:01:31;29.50;99.90
42365;DHT22;28498;54.400;18.566;2022-08-19T10:03:59;29.80;99.90
42365;DHT22;28498;54.400;18.566;2022-08-19T10:06:28;29.90;1.00
42365;DHT22;28498;54.400;18.566;2022-08-19T10:09:13;29.90;40.30
42365;DHT22;28498;54.400;18.566;2022-08-19T10:11:42;30.40;64.20
42365;DHT22;28498;54.400;18.566;2022-08-19T10:14:19;30.50;99.90
42365;DHT22;28498;54.400;18.566;2022-08-19T10:16:49;30.90;99.90
42365;DHT22;28498;54.400;18.566;2022-08-19T10:19:19;30.80;1.00
42365;DHT22;28498;54.400;18.566;2022-08-19T10:21:52;30.90;99.90
42365;DHT22;28498;54.400;18.566;2022-08-19T10:24:19;30.90;99.90
42365;DHT22;28498;54.400;18.566;2022-08-19T10:26:47;30.90;99.90
42365;DHT22;28498;54.400;18.566;2022-08-19T10:29:24;30.90;99.90
42365;DHT22;28498;54.400;18.566;2022-08-19T10:32:03;30.80;99.90
42365;DHT22;28498;54.400;18.566;2022-08-19T10:34:37;31.20;99.90
42365;DHT22;28498;54.400;18.566;2022-08-19T10:37:15;31.40;99.90
42365;DHT22;28498;54.400;18.566;2022-08-19T10:39:50;31.80;99.90
42365;DHT22;28498;54.400;18.566;2022-08-19T10:42:17;32.00;1.00
42365;DHT22;28498;54.400;18.566;2022-08-19T10:44:45;31.90;1.00
42365;DHT22;28498;54.400;18.566;2022-08-19T10:47:13;31.90;1.00
42365;DHT22;28498;54.400;18.566;2022-08-19T10:49:53;31.60;99.90
42365;DHT22;28498;54.400;18.566;2022-08-19T10:52:41;31.20;99.90
42365;DHT22;28498;54.400;18.566;2022-08-19T10:55:18;31.60;99.90
42365;DHT22;28498;54.400;18.566;2022-08-19T10:58:03;31.70;99.90
42365;DHT22;28498;54.400;18.566;2022-08-19T11:00:31;32.00;99.90
42365;DHT22;28498;54.400;18.566;2022-08-19T11:02:58;31.30;99.90
42365;DHT22;28498;54.400;18.566;2022-08-19T11:05:25;31.70;99.90
42365;DHT22;28498;54.400;18.566;2022-08-19T11:07:52;32.00;99.90
42365;DHT22;28498;54.400;18.566;2022-08-19T11:10:20;31.90;99.90
42365;DHT22;28498;54.400;18.566;2022-08-19T11:12:48;32.00;99.90
42365;DHT22;28498;54.400;18.566;2022-08-19T11:15:16;32.00;99.90
42365;DHT22;28498;54.400;18.566;2022-08-19T11:17:43;31.90;99.90
42365;DHT22;28498;54.400;18.566;2022-08-19T11:20:14;31.80;99.90
42365;DHT22;28498;54.400;18.566;2022-08-19T11:22:42;31.70;99.90
42365;DHT22;28498;54.400;18.566;2022-08-19T11:25:10;31.70;99.90
42365;DHT22;28498;54.400;18.566;2022-08-19T11:27:41;31.60;99.90
42365;DHT22;28498;54.400;18.566;2022-08-19T11:30:10;31.50;99.90
42365;DHT22;28498;54.400;18.566;2022-08-19T11:32:40;31.40;99.90
42365;DHT22;28498;54.400;18.566;2022-08-19T11:35:14;31.40;99.90
42365;DHT22;28498;54.400;18.566;2022-08-19T11:37:41;31.50;99.90
42365;DHT22;28498;54.400;18.566;2022-08-19T11:40:08;31.50;99.90
42365;DHT22;28498;54.400;18.566;2022-08-19T11:42:36;31.50;99.90
42365;DHT22;28498;54.400;18.566;2022-08-19T11:45:27;31.70;99.90
42365;DHT22;28498;54.400;18.566;2022-08-19T11:47:55;31.80;99.90
42365;DHT22;28498;54.400;18.566;2022-08-19T11:50:23;32.00;99.90
42365;DHT22;28498;54.400;18.566;2022-08-19T11:52:54;32.20;99.90
42365;DHT22;28498;54.400;18.566;2022-08-19T11:55:21;32.30;99.90
42365;DHT22;28498;54.400;18.566;2022-08-19T11:57:48;32.20;99.90
42365;DHT22;28498;54.400;18.566;2022-08-19T12:00:16;31.90;99.90
42365;DHT22;28498;54.400;18.566;2022-08-19T12:02:43;31.70;99.90
42365;DHT22;28498;54.400;18.566;2022-08-19T12:05:10;31.50;99.90
42365;DHT22;28498;54.400;18.566;2022-08-19T12:07:39;31.80;99.90
42365;DHT22;28498;54.400;18.566;2022-08-19T12:10:08;31.60;99.90
42365;DHT22;28498;54.400;18.566;2022-08-19T12:12:37;31.50;99.90
42365;DHT22;28498;54.400;18.566;2022-08-19T12:15:10;31.50;99.90
42365;DHT22;28498;54.400;18.566;2022-08-19T12:17:37;31.90;99.90
42365;DHT22;28498;54.400;18.566;2022-08-19T12:20:05;32.10;99.90
42365;DHT22;28498;54.400;18.566;2022-08-19T12:22:32;32.30;99.90
42365;DHT22;28498;54.400;18.566;2022-08-19T12:24:59;32.30;99.90
42365;DHT22;28498;54.400;18.566;2022-08-19T12:27:27;32.30;99.90
42365;DHT22;28498;54.400;18.566;2022-08-19T12:30:02;32.20;99.90
42365;DHT22;28498;54.400;18.566;2022-08-19T12:32:29;32.20;99.90
42365;DHT22;28498;54.400;18.566;2022-08-19T12:34:56;32.00;99.90
42365;DHT22;28498;54.400;18.566;2022-08-19T12:37:24;31.90;99.90
42365;DHT22;28498;54.400;18.566;2022-08-19T12:39:50;32.00;99.90
42365;DHT22;28498;54.400;18.566;2022-08-19T12:42:18;32.20;99.90
42365;DHT22;28498;54.400;18.566;2022-08-19T12:44:45;32.20;99.90
42365;DHT22;28498;54.400;18.566;2022-08-19T12:47:12;32.30;99.90
42365;DHT22;28498;54.400;18.566;2022-08-19T12:49:41;32.60;99.90
42365;DHT22;28498;54.400;18.566;2022-08-19T12:52:22;32.90;99.90
42365;DHT22;28498;54.400;18.566;2022-08-19T12:54:50;32.90;99.90
42365;DHT22;28498;54.400;18.566;2022-08-19T12:57:21;33.00;99.90
42365;DHT22;28498;54.400;18.566;2022-08-19T12:59:57;33.20;99.90
42365;DHT22;28498;54.400;18.566;2022-08-19T13:02:24;33.20;99.90
42365;DHT22;28498;54.400;18.566;2022-08-19T13:04:50;33.10;99.90
42365;DHT22;28498;54.400;18.566;2022-08-19T13:07:17;32.70;99.90
42365;DHT22;28498;54.400;18.566;2022-08-19T13:09:44;32.50;99.90
42365;DHT22;28498;54.400;18.566;2022-08-19T13:12:11;32.20;99.90
42365;DHT22;28498;54.400;18.566;2022-08-19T13:14:41;32.00;99.90
42365;DHT22;28498;54.400;18.566;2022-08-19T13:17:08;32.00;99.90
42365;DHT22;28498;54.400;18.566;2022-08-19T13:19:38;32.30;99.90
42365;DHT22;28498;54.400;18.566;2022-08-19T13:22:06;32.80;99.90
42365;DHT22;28498;54.400;18.566;2022-08-19T13:24:40;33.10;99.90
42365;DHT22;28498;54.400;18.566;2022-08-19T13:27:14;33.10;99.90
42365;DHT22;28498;54.400;18.566;2022-08-19T13:29:42;33.00;99.90
42365;DHT22;28498;54.400;18.566;2022-08-19T13:32:29;32.70;94.90
42365;DHT22;28498;54.400;18.566;2022-08-19T13:35:16;32.60;76.80
42365;DHT22;28498;54.400;18.566;2022-08-19T13:37:44;32.40;62.70
42365;DHT22;28498;54.400;18.566;2022-08-19T13:40:17;32.30;63.90
42365;DHT22;28498;54.400;18.566;2022-08-19T13:42:48;32.40;92.40
42365;DHT22;28498;54.400;18.566;2022-08-19T13:45:20;32.80;94.10
42365;DHT22;28498;54.400;18.566;2022-08-19T13:47:52;32.90;99.90
42365;DHT22;28498;54.400;18.566;2022-08-19T13:50:29;32.90;91.70
42365;DHT22;28498;54.400;18.566;2022-08-19T13:53:01;32.80;97.20
42365;DHT22;28498;54.400;18.566;2022-08-19T13:55:28;32.60;99.90
42365;DHT22;28498;54.400;18.566;2022-08-19T13:57:58;32.60;99.90
42365;DHT22;28498;54.400;18.566;2022-08-19T14:00:28;32.40;99.90
42365;DHT22;28498;54.400;18.566;2022-08-19T14:02:56;32.30;99.90
42365;DHT22;28498;54.400;18.566;2022-08-19T14:05:25;32.40;99.90
42365;DHT22;28498;54.400;18.566;2022-08-19T14:07:53;32.40;99.90
42365;DHT22;28498;54.400;18.566;2022-08-19T14:10:21;32.40;99.90
42365;DHT22;28498;54.400;18.566;2022-08-19T14:12:53;32.80;99.90
42365;DHT22;28498;54.400;18.566;2022-08-19T14:15:22;33.40;99.90
42365;DHT22;28498;54.400;18.566;2022-08-19T14:17:50;34.10;99.90
42365;DHT22;28498;54.400;18.566;2022-08-19T14:20:17;34.00;99.90
42365;DHT22;28498;54.400;18.566;2022-08-19T14:22:45;34.50;99.90
42365;DHT22;28498;54.400;18.566;2022-08-19T14:25:16;34.90;99.90
42365;DHT22;28498;54.400;18.566;2022-08-19T14:27:43;34.70;98.90
42365;DHT22;28498;54.400;18.566;2022-08-19T14:30:14;34.60;99.90
42365;DHT22;28498;54.400;18.566;2022-08-19T14:32:41;34.50;99.90
42365;DHT22;28498;54.400;18.566;2022-08-19T14:35:10;34.70;74.70
42365;DHT22;28498;54.400;18.566;2022-08-19T14:37:39;34.70;88.90
42365;DHT22;28498;54.400;18.566;2022-08-19T14:40:13;34.90;93.60
42365;DHT22;28498;54.400;18.566;2022-08-19T14:42:40;35.00;95.00
42365;DHT22;28498;54.400;18.566;2022-08-19T14:45:09;35.10;78.10
42365;DHT22;28498;54.400;18.566;2022-08-19T14:47:36;34.90;57.30
42365;DHT22;28498;54.400;18.566;2022-08-19T14:50:10;34.70;68.20
42365;DHT22;28498;54.400;18.566;2022-08-19T14:52:47;34.50;70.30
42365;DHT22;28498;54.400;18.566;2022-08-19T14:55:15;34.40;1.00
42365;DHT22;28498;54.400;18.566;2022-08-19T14:57:43;34.30;1.00
42365;DHT22;28498;54.400;18.566;2022-08-19T15:00:12;33.90;1.00
42365;DHT22;28498;54.400;18.566;2022-08-19T15:02:41;33.70;1.00
42365;DHT22;28498;54.400;18.566;2022-08-19T15:05:08;33.70;1.00
42365;DHT22;28498;54.400;18.566;2022-08-19T15:07:36;33.60;1.00
42365;DHT22;28498;54.400;18.566;2022-08-19T15:10:04;33.30;1.00
42365;DHT22;28498;54.400;18.566;2022-08-19T15:12:37;33.00;1.00
42365;DHT22;28498;54.400;18.566;2022-08-19T15:15:09;32.80;1.00
42365;DHT22;28498;54.400;18.566;2022-08-19T15:17:41;32.70;1.00
42365;DHT22;28498;54.400;18.566;2022-08-19T15:20:14;32.70;1.00
42365;DHT22;28498;54.400;18.566;2022-08-19T15:22:42;32.70;1.00
42365;DHT22;28498;54.400;18.566;2022-08-19T15:25:11;32.80;1.00
42365;DHT22;28498;54.400;18.566;2022-08-19T15:27:40;32.60;1.00
42365;DHT22;28498;54.400;18.566;2022-08-19T15:30:08;32.50;1.00
42365;DHT22;28498;54.400;18.566;2022-08-19T15:32:36;32.50;1.00
42365;DHT22;28498;54.400;18.566;2022-08-19T15:35:05;32.50;1.00
42365;DHT22;28498;54.400;18.566;2022-08-19T15:37:32;32.50;1.00
42365;DHT22;28498;54.400;18.566;2022-08-19T15:40:04;32.40;1.00
42365;DHT22;28498;54.400;18.566;2022-08-19T15:42:32;32.30;1.00
42365;DHT22;28498;54.400;18.566;2022-08-19T15:44:59;32.30;24.50
42365;DHT22;28498;54.400;18.566;2022-08-19T15:47:28;32.30;14.50
42365;DHT22;28498;54.400;18.566;2022-08-19T15:50:19;32.20;26.50
42365;DHT22;28498;54.400;18.566;2022-08-19T15:52:49;32.00;11.40
42365;DHT22;28498;54.400;18.566;2022-08-19T15:55:22;32.10;13.60
42365;DHT22;28498;54.400;18.566;2022-08-19T15:58:08;32.10;9.50
42365;DHT22;28498;54.400;18.566;2022-08-19T16:01:03;32.00;16.00
42365;DHT22;28498;54.400;18.566;2022-08-19T16:03:51;31.80;46.10
42365;DHT22;28498;54.400;18.566;2022-08-19T16:06:46;31.80;36.40